Date,TemperatureHighF,TemperatureAvgF,TemperatureLowF,DewpointHighF,DewpointAvgF,DewpointLowF,HumidityHigh,HumidityAvg,HumidityLow,PressureMaxIn,PressureMinIn,WindSpeedMaxMPH,WindSpeedAvgMPH,GustSpeedMaxMPH,PrecipitationSumIn
2013-3-1,45,40,37,31,29,26,75,65,51,29.84,29.67,10,4,17,0.00
2013-3-2,38,35,32,28,23,21,75,62,52,29.85,29.77,10,4,20,0.00
2013-3-3,38,33,30,22,20,18,68,58,48,29.86,29.76,13,6,25,0.00
2013-3-4,42,33,26,20,17,14,61,52,38,30.00,29.86,14,6,25,0.00
2013-3-5,46,37,27,30,23,16,71,58,40,30.06,29.85,7,2,14,0.00
2013-3-6,39,36,33,36,33,27,98,90,67,29.95,29.65,15,8,27,0.28
2013-3-7,50,40,35,29,26,24,74,58,39,30.11,29.95,9,5,22,0.00
2013-3-8,47,41,34,28,25,22,67,54,44,30.24,30.08,15,7,37,0.00
2013-3-9,63,45,34,27,23,18,68,44,19,30.31,30.22,8,3,18,0.00
2013-3-10,58,44,29,37,27,14,87,56,19,30.33,30.22,8,2,17,0.00
2013-3-11,56,48,39,48,43,37,99,86,72,30.25,29.96,7,3,17,0.00
2013-3-12,59,51,42,56,46,31,99,83,58,29.96,29.69,13,5,21,1.01
2013-3-13,50,40,30,32,26,18,94,60,30,30.01,29.86,15,4,33,0.00
2013-3-14,44,36,30,20,17,12,63,47,30,30.06,29.97,22,8,33,0.00
2013-3-15,56,41,27,31,22,16,71,48,30,30.05,29.76,8,2,25,0.00
2013-3-16,46,41,36,37,33,30,87,75,63,29.92,29.67,8,2,16,0.01
2013-3-17,40,36,34,32,28,21,90,72,54,30.27,29.91,7,2,12,0.00
2013-3-18,37,35,33,36,27,17,98,73,51,30.32,29.87,10,3,17,0.47
2013-3-19,56,44,36,41,31,12,99,68,22,29.88,29.69,14,4,29,0.01
2013-3-20,52,42,30,23,18,14,59,39,24,29.96,29.76,13,4,22,0.00
2013-3-21,40,34,28,26,16,8,78,49,31,29.85,29.71,16,5,27,0.00
2013-3-22,45,34,27,20,17,11,61,49,34,29.97,29.84,14,6,27,0.00
2013-3-23,50,38,25,24,21,19,78,53,31,29.99,29.89,14,4,26,0.00
2013-3-24,44,37,27,32,23,20,87,60,41,29.98,29.66,9,2,15,0.00
2013-3-25,38,35,32,35,32,28,97,91,71,29.67,29.49,8,2,13,0.65
2013-3-26,52,41,32,34,31,23,96,71,32,29.93,29.67,12,4,20,0.09
2013-3-27,51,43,38,31,28,24,70,57,39,30.07,29.93,17,7,30,0.00
2013-3-28,49,42,34,32,29,25,81,60,42,30.18,30.04,12,5,21,0.00
2013-3-29,56,46,39,31,28,24,70,50,31,30.21,30.11,14,4,21,0.00
2013-3-30,62,46,30,32,28,24,91,57,24,30.21,30.09,9,2,16,0.00
2013-3-31,53,45,35,49,40,29,99,86,68,30.11,29.72,9,1,20,0.12